sensor_id;sensor_type;location;lat;lon;timestamp;temperature;humidity
52295;DHT22;38243;53.212;6.574;2022-11-15T00:00:48;16.90;93.60
52295;DHT22;38243;53.212;6.574;2022-11-15T00:03:15;16.90;93.60
52295;DHT22;38243;53.212;6.574;2022-11-15T00:05:41;16.90;93.50
52295;DHT22;38243;53.212;6.574;2022-11-15T00:08:07;16.90;93.60
52295;DHT22;38243;53.212;6.574;2022-11-15T00:10:33;16.90;93.60
52295;DHT22;38243;53.212;6.574;2022-11-15T00:12:58;16.90;93.60
52295;DHT22;38243;53.212;6.574;2022-11-15T00:15:24;16.90;93.60
52295;DHT22;38243;53.212;6.574;2022-11-15T00:17:50;16.90;93.50
52295;DHT22;38243;53.212;6.574;2022-11-15T00:20:17;16.90;93.40
52295;DHT22;38243;53.212;6.574;2022-11-15T00:22:42;16.90;93.40
52295;DHT22;38243;53.212;6.574;2022-11-15T00:25:08;16.90;93.50
52295;DHT22;38243;53.212;6.574;2022-11-15T00:27:34;16.80;93.30
52295;DHT22;38243;53.212;6.574;2022-11-15T00:30:00;16.90;93.40
52295;DHT22;38243;53.212;6.574;2022-11-15T00:32:26;16.80;93.30
52295;DHT22;38243;53.212;6.574;2022-11-15T00:34:52;16.80;93.40
52295;DHT22;38243;53.212;6.574;2022-11-15T00:37:17;16.80;93.60
52295;DHT22;38243;53.212;6.574;2022-11-15T00:39:43;16.80;93.40
52295;DHT22;38243;53.212;6.574;2022-11-15T00:42:09;16.80;93.30
52295;DHT22;38243;53.212;6.574;2022-11-15T00:44:34;16.80;93.30
52295;DHT22;38243;53.212;6.574;2022-11-15T00:47:00;16.80;93.40
52295;DHT22;38243;53.212;6.574;2022-11-15T00:49:25;16.80;93.30
52295;DHT22;38243;53.212;6.574;2022-11-15T00:51:51;16.80;93.40
52295;DHT22;38243;53.212;6.574;2022-11-15T00:54:17;16.80;93.20
52295;DHT22;38243;53.212;6.574;2022-11-15T00:56:42;16.80;93.10
52295;DHT22;38243;53.212;6.574;2022-11-15T00:59:08;16.80;93.20
52295;DHT22;38243;53.212;6.574;2022-11-15T01:01:34;16.80;93.20
52295;DHT22;38243;53.212;6.574;2022-11-15T01:03:59;16.80;93.30
52295;DHT22;38243;53.212;6.574;2022-11-15T01:06:25;16.80;93.10
52295;DHT22;38243;53.212;6.574;2022-11-15T01:08:51;16.80;93.10
52295;DHT22;38243;53.212;6.574;2022-11-15T01:11:16;16.80;93.00
52295;DHT22;38243;53.212;6.574;2022-11-15T01:13:42;16.80;92.90
52295;DHT22;38243;53.212;6.574;2022-11-15T01:16:09;16.80;93.00
52295;DHT22;38243;53.212;6.574;2022-11-15T01:18:35;16.80;93.00
52295;DHT22;38243;53.212;6.574;2022-11-15T01:21:05;16.70;92.70
52295;DHT22;38243;53.212;6.574;2022-11-15T01:23:31;16.70;92.90
52295;DHT22;38243;53.212;6.574;2022-11-15T01:26:06;16.70;93.00
52295;DHT22;38243;53.212;6.574;2022-11-15T01:28:33;16.80;92.70
52295;DHT22;38243;53.212;6.574;2022-11-15T01:31:09;16.70;92.70
52295;DHT22;38243;53.212;6.574;2022-11-15T01:33:35;16.80;92.70
52295;DHT22;38243;53.212;6.574;2022-11-15T01:36:06;16.70;92.60
52295;DHT22;38243;53.212;6.574;2022-11-15T01:38:33;16.80;92.60
52295;DHT22;38243;53.212;6.574;2022-11-15T01:40:58;16.80;92.50
52295;DHT22;38243;53.212;6.574;2022-11-15T01:43:30;16.80;92.50
52295;DHT22;38243;53.212;6.574;2022-11-15T01:46:46;16.70;92.40
52295;DHT22;38243;53.212;6.574;2022-11-15T01:48:48;16.70;92.40
52295;DHT22;38243;53.212;6.574;2022-11-15T01:51:17;16.70;92.60
52295;DHT22;38243;53.212;6.574;2022-11-15T01:53:47;16.70;92.50
52295;DHT22;38243;53.212;6.574;2022-11-15T01:56:17;16.70;92.50
52295;DHT22;38243;53.212;6.574;2022-11-15T01:58:45;16.70;92.20
52295;DHT22;38243;53.212;6.574;2022-11-15T02:01:12;16.80;92.30
52295;DHT22;38243;53.212;6.574;2022-11-15T02:06:08;16.70;92.30
52295;DHT22;38243;53.212;6.574;2022-11-15T02:08:34;16.70;92.20
52295;DHT22;38243;53.212;6.574;2022-11-15T02:10:59;16.70;92.20
52295;DHT22;38243;53.212;6.574;2022-11-15T02:13:25;16.70;92.20
52295;DHT22;38243;53.212;6.574;2022-11-15T02:16:23;16.70;92.20
52295;DHT22;38243;53.212;6.574;2022-11-15T02:24:09;16.70;92.10
52295;DHT22;38243;53.212;6.574;2022-11-15T02:26:52;16.70;92.20
52295;DHT22;38243;53.212;6.574;2022-11-15T02:29:52;16.70;92.10
52295;DHT22;38243;53.212;6.574;2022-11-15T02:32:36;16.70;92.10
52295;DHT22;38243;53.212;6.574;2022-11-15T02:35:15;16.70;92.00
52295;DHT22;38243;53.212;6.574;2022-11-15T02:37:47;16.70;92.30
52295;DHT22;38243;53.212;6.574;2022-11-15T02:43:25;16.70;92.10
52295;DHT22;38243;53.212;6.574;2022-11-15T02:46:19;16.70;92.20
52295;DHT22;38243;53.212;6.574;2022-11-15T02:48:48;16.70;92.20
52295;DHT22;38243;53.212;6.574;2022-11-15T02:51:15;16.70;92.20
52295;DHT22;38243;53.212;6.574;2022-11-15T02:53:41;16.70;92.20
52295;DHT22;38243;53.212;6.574;2022-11-15T02:56:09;16.70;92.30
52295;DHT22;38243;53.212;6.574;2022-11-15T03:05:08;16.70;92.40
52295;DHT22;38243;53.212;6.574;2022-11-15T03:13:21;16.70;92.70
52295;DHT22;38243;53.212;6.574;2022-11-15T03:15:58;16.60;92.70
52295;DHT22;38243;53.212;6.574;2022-11-15T03:18:32;16.70;92.70
52295;DHT22;38243;53.212;6.574;2022-11-15T03:21:02;16.70;92.60
52295;DHT22;38243;53.212;6.574;2022-11-15T03:23:30;16.60;92.60
52295;DHT22;38243;53.212;6.574;2022-11-15T03:25:58;16.70;92.60
52295;DHT22;38243;53.212;6.574;2022-11-15T03:28:32;16.60;92.50
52295;DHT22;38243;53.212;6.574;2022-11-15T03:31:01;16.60;92.50
52295;DHT22;38243;53.212;6.574;2022-11-15T03:33:48;16.60;92.50
52295;DHT22;38243;53.212;6.574;2022-11-15T03:36:15;16.60;92.60
52295;DHT22;38243;53.212;6.574;2022-11-15T03:38:42;16.60;92.40
52295;DHT22;38243;53.212;6.574;2022-11-15T03:41:24;16.60;92.70
52295;DHT22;38243;53.212;6.574;2022-11-15T03:44:26;16.60;92.60
52295;DHT22;38243;53.212;6.574;2022-11-15T03:47:03;16.60;92.50
52295;DHT22;38243;53.212;6.574;2022-11-15T03:49:35;16.60;92.60
52295;DHT22;38243;53.212;6.574;2022-11-15T03:52:03;16.60;92.60
52295;DHT22;38243;53.212;6.574;2022-11-15T03:54:29;16.60;92.60
52295;DHT22;38243;53.212;6.574;2022-11-15T03:56:55;16.60;92.50
52295;DHT22;38243;53.212;6.574;2022-11-15T03:59:20;16.60;92.50
52295;DHT22;38243;53.212;6.574;2022-11-15T04:01:46;16.60;92.50
52295;DHT22;38243;53.212;6.574;2022-11-15T04:04:12;16.60;92.90
52295;DHT22;38243;53.212;6.574;2022-11-15T04:06:38;16.60;92.50
52295;DHT22;38243;53.212;6.574;2022-11-15T04:09:04;16.60;92.50
52295;DHT22;38243;53.212;6.574;2022-11-15T04:11:29;16.60;92.50
52295;DHT22;38243;53.212;6.574;2022-11-15T04:13:55;16.60;92.60
52295;DHT22;38243;53.212;6.574;2022-11-15T04:16:21;16.60;92.70
52295;DHT22;38243;53.212;6.574;2022-11-15T04:18:46;16.60;92.70
52295;DHT22;38243;53.212;6.574;2022-11-15T04:21:32;16.60;92.80
52295;DHT22;38243;53.212;6.574;2022-11-15T04:24:16;16.60;92.80
52295;DHT22;38243;53.212;6.574;2022-11-15T04:26:42;16.60;92.70
52295;DHT22;38243;53.212;6.574;2022-11-15T04:29:07;16.60;92.70
52295;DHT22;38243;53.212;6.574;2022-11-15T04:31:52;16.60;92.70
52295;DHT22;38243;53.212;6.574;2022-11-15T04:34:17;16.60;92.70
52295;DHT22;38243;53.212;6.574;2022-11-15T04:36:43;16.60;92.70
52295;DHT22;38243;53.212;6.574;2022-11-15T04:39:27;16.60;92.70
52295;DHT22;38243;53.212;6.574;2022-11-15T04:41:53;16.60;92.70
52295;DHT22;38243;53.212;6.574;2022-11-15T04:44:18;16.60;92.90
52295;DHT22;38243;53.212;6.574;2022-11-15T04:46:44;16.60;92.90
52295;DHT22;38243;53.212;6.574;2022-11-15T04:49:10;16.60;92.90
52295;DHT22;38243;53.212;6.574;2022-11-15T04:51:35;16.60;92.90
52295;DHT22;38243;53.212;6.574;2022-11-15T04:54:01;16.60;92.90
52295;DHT22;38243;53.212;6.574;2022-11-15T04:56:27;16.60;92.90
52295;DHT22;38243;53.212;6.574;2022-11-15T04:58:52;16.60;93.20
52295;DHT22;38243;53.212;6.574;2022-11-15T05:01:18;16.60;93.00
52295;DHT22;38243;53.212;6.574;2022-11-15T05:03:44;16.60;93.00
52295;DHT22;38243;53.212;6.574;2022-11-15T05:06:29;16.60;93.10
52295;DHT22;38243;53.212;6.574;2022-11-15T05:08:55;16.60;93.00
52295;DHT22;38243;53.212;6.574;2022-11-15T05:11:21;16.60;93.00
52295;DHT22;38243;53.212;6.574;2022-11-15T05:13:47;16.60;93.10
52295;DHT22;38243;53.212;6.574;2022-11-15T05:16:12;16.60;93.00
52295;DHT22;38243;53.212;6.574;2022-11-15T05:18:38;16.60;93.10
52295;DHT22;38243;53.212;6.574;2022-11-15T05:21:09;16.60;93.10
52295;DHT22;38243;53.212;6.574;2022-11-15T05:23:35;16.60;93.10
52295;DHT22;38243;53.212;6.574;2022-11-15T05:26:02;16.60;93.10
52295;DHT22;38243;53.212;6.574;2022-11-15T05:28:28;16.60;93.20
52295;DHT22;38243;53.212;6.574;2022-11-15T05:30:59;16.60;93.20
52295;DHT22;38243;53.212;6.574;2022-11-15T05:33:25;16.60;93.20
52295;DHT22;38243;53.212;6.574;2022-11-15T05:35:56;16.60;93.20
52295;DHT22;38243;53.212;6.574;2022-11-15T05:38:24;16.60;93.20
52295;DHT22;38243;53.212;6.574;2022-11-15T05:40:49;16.50;93.20
52295;DHT22;38243;53.212;6.574;2022-11-15T05:43:15;16.60;93.20
52295;DHT22;38243;53.212;6.574;2022-11-15T05:45:41;16.60;93.30
52295;DHT22;38243;53.212;6.574;2022-11-15T05:48:07;16.60;93.30
52295;DHT22;38243;53.212;6.574;2022-11-15T05:50:36;16.60;93.30
52295;DHT22;38243;53.212;6.574;2022-11-15T05:53:04;16.60;93.40
52295;DHT22;38243;53.212;6.574;2022-11-15T05:55:31;16.60;93.40
52295;DHT22;38243;53.212;6.574;2022-11-15T05:57:57;16.60;93.40
52295;DHT22;38243;53.212;6.574;2022-11-15T06:00:23;16.60;93.40
52295;DHT22;38243;53.212;6.574;2022-11-15T06:02:48;16.60;93.40
52295;DHT22;38243;53.212;6.574;2022-11-15T06:05:14;16.60;93.40
52295;DHT22;38243;53.212;6.574;2022-11-15T06:07:40;16.60;93.50
52295;DHT22;38243;53.212;6.574;2022-11-15T06:10:06;16.60;93.50
52295;DHT22;38243;53.212;6.574;2022-11-15T06:12:32;16.50;93.50
52295;DHT22;38243;53.212;6.574;2022-11-15T06:14:58;16.60;93.60
52295;DHT22;38243;53.212;6.574;2022-11-15T06:17:23;16.50;93.60
52295;DHT22;38243;53.212;6.574;2022-11-15T06:19:49;16.60;93.60
52295;DHT22;38243;53.212;6.574;2022-11-15T06:22:15;16.60;93.70
52295;DHT22;38243;53.212;6.574;2022-11-15T06:24:40;16.60;93.70
52295;DHT22;38243;53.212;6.574;2022-11-15T06:27:06;16.60;93.80
52295;DHT22;38243;53.212;6.574;2022-11-15T06:29:32;16.60;93.80
52295;DHT22;38243;53.212;6.574;2022-11-15T06:31:57;16.50;93.80
52295;DHT22;38243;53.212;6.574;2022-11-15T06:34:23;16.60;93.80
52295;DHT22;38243;53.212;6.574;2022-11-15T06:36:49;16.60;93.90
52295;DHT22;38243;53.212;6.574;2022-11-15T06:39:14;16.60;93.90
52295;DHT22;38243;53.212;6.574;2022-11-15T06:41:40;16.60;93.90
52295;DHT22;38243;53.212;6.574;2022-11-15T06:44:06;16.60;94.00
52295;DHT22;38243;53.212;6.574;2022-11-15T06:46:31;16.60;94.00
52295;DHT22;38243;53.212;6.574;2022-11-15T06:48:57;16.60;94.10
52295;DHT22;38243;53.212;6.574;2022-11-15T06:51:23;16.60;94.10
52295;DHT22;38243;53.212;6.574;2022-11-15T06:53:48;16.60;94.10
52295;DHT22;38243;53.212;6.574;2022-11-15T06:56:14;16.60;94.20
52295;DHT22;38243;53.212;6.574;2022-11-15T06:58:40;16.60;94.20
52295;DHT22;38243;53.212;6.574;2022-11-15T07:01:08;16.60;94.20
52295;DHT22;38243;53.212;6.574;2022-11-15T07:03:36;16.60;94.30
52295;DHT22;38243;53.212;6.574;2022-11-15T07:06:03;16.60;94.60
52295;DHT22;38243;53.212;6.574;2022-11-15T07:08:30;16.60;94.30
52295;DHT22;38243;53.212;6.574;2022-11-15T07:11:00;16.60;94.40
52295;DHT22;38243;53.212;6.574;2022-11-15T07:13:28;16.60;94.40
52295;DHT22;38243;53.212;6.574;2022-11-15T07:15:54;16.60;94.50
52295;DHT22;38243;53.212;6.574;2022-11-15T07:18:20;16.60;94.50
52295;DHT22;38243;53.212;6.574;2022-11-15T07:20:45;16.60;94.50
52295;DHT22;38243;53.212;6.574;2022-11-15T07:23:14;16.60;94.60
52295;DHT22;38243;53.212;6.574;2022-11-15T07:25:40;16.60;94.60
52295;DHT22;38243;53.212;6.574;2022-11-15T07:28:06;16.60;94.60
52295;DHT22;38243;53.212;6.574;2022-11-15T07:30:31;16.60;94.70
52295;DHT22;38243;53.212;6.574;2022-11-15T07:32:59;16.60;94.70
52295;DHT22;38243;53.212;6.574;2022-11-15T07:35:26;16.60;94.70
52295;DHT22;38243;53.212;6.574;2022-11-15T07:37:56;16.60;94.80
52295;DHT22;38243;53.212;6.574;2022-11-15T07:40:23;16.60;94.80
52295;DHT22;38243;53.212;6.574;2022-11-15T07:42:48;16.60;94.80
52295;DHT22;38243;53.212;6.574;2022-11-15T07:45:22;16.60;94.90
52295;DHT22;38243;53.212;6.574;2022-11-15T07:47:49;16.60;94.90
52295;DHT22;38243;53.212;6.574;2022-11-15T07:50:16;16.60;94.90
52295;DHT22;38243;53.212;6.574;2022-11-15T07:52:42;16.60;95.00
52295;DHT22;38243;53.212;6.574;2022-11-15T07:55:08;16.60;95.00
52295;DHT22;38243;53.212;6.574;2022-11-15T07:57:34;16.60;95.00
52295;DHT22;38243;53.212;6.574;2022-11-15T08:00:00;16.60;95.00
52295;DHT22;38243;53.212;6.574;2022-11-15T08:02:26;16.60;95.10
52295;DHT22;38243;53.212;6.574;2022-11-15T08:04:52;16.60;95.10
52295;DHT22;38243;53.212;6.574;2022-11-15T08:07:17;16.60;95.10
52295;DHT22;38243;53.212;6.574;2022-11-15T08:09:43;16.60;95.20
52295;DHT22;38243;53.212;6.574;2022-11-15T08:12:09;16.60;95.20
52295;DHT22;38243;53.212;6.574;2022-11-15T08:14:35;16.60;95.20
52295;DHT22;38243;53.212;6.574;2022-11-15T08:17:01;16.60;95.30
52295;DHT22;38243;53.212;6.574;2022-11-15T08:19:26;16.60;95.30
52295;DHT22;38243;53.212;6.574;2022-11-15T08:21:52;16.60;95.30
52295;DHT22;38243;53.212;6.574;2022-11-15T08:24:18;16.60;95.40
52295;DHT22;38243;53.212;6.574;2022-11-15T08:26:44;16.60;95.40
52295;DHT22;38243;53.212;6.574;2022-11-15T08:29:10;16.60;95.40
52295;DHT22;38243;53.212;6.574;2022-11-15T08:31:36;16.70;95.50
52295;DHT22;38243;53.212;6.574;2022-11-15T08:34:05;16.60;95.50
52295;DHT22;38243;53.212;6.574;2022-11-15T08:36:31;16.60;95.50
52295;DHT22;38243;53.212;6.574;2022-11-15T08:38:57;16.70;95.50
52295;DHT22;38243;53.212;6.574;2022-11-15T08:41:35;16.60;95.50
52295;DHT22;38243;53.212;6.574;2022-11-15T08:44:02;16.70;95.60
52295;DHT22;38243;53.212;6.574;2022-11-15T08:46:27;16.70;95.70
52295;DHT22;38243;53.212;6.574;2022-11-15T08:48:53;16.70;95.80
52295;DHT22;38243;53.212;6.574;2022-11-15T08:51:19;16.70;95.80
52295;DHT22;38243;53.212;6.574;2022-11-15T08:53:45;16.70;95.80
52295;DHT22;38243;53.212;6.574;2022-11-15T08:56:13;16.70;95.90
52295;DHT22;38243;53.212;6.574;2022-11-15T08:58:39;16.70;95.90
52295;DHT22;38243;53.212;6.574;2022-11-15T09:01:06;16.70;96.10
52295;DHT22;38243;53.212;6.574;2022-11-15T09:03:32;16.70;96.10
52295;DHT22;38243;53.212;6.574;2022-11-15T09:06:00;16.70;96.20
52295;DHT22;38243;53.212;6.574;2022-11-15T09:08:29;16.80;96.20
52295;DHT22;38243;53.212;6.574;2022-11-15T09:10:55;16.80;96.40
52295;DHT22;38243;53.212;6.574;2022-11-15T09:13:21;16.80;96.50
52295;DHT22;38243;53.212;6.574;2022-11-15T09:15:47;16.80;96.80
52295;DHT22;38243;53.212;6.574;2022-11-15T09:18:12;16.80;96.90
52295;DHT22;38243;53.212;6.574;2022-11-15T09:20:38;16.80;96.90
52295;DHT22;38243;53.212;6.574;2022-11-15T09:23:05;16.90;96.90
52295;DHT22;38243;53.212;6.574;2022-11-15T09:25:31;16.90;97.20
52295;DHT22;38243;53.212;6.574;2022-11-15T09:27:57;16.90;97.30
52295;DHT22;38243;53.212;6.574;2022-11-15T09:30:24;16.90;97.30
52295;DHT22;38243;53.212;6.574;2022-11-15T09:32:50;16.90;97.40
52295;DHT22;38243;53.212;6.574;2022-11-15T09:35:16;16.90;97.30
52295;DHT22;38243;53.212;6.574;2022-11-15T09:37:42;16.90;97.30
52295;DHT22;38243;53.212;6.574;2022-11-15T09:40:13;16.90;97.20
52295;DHT22;38243;53.212;6.574;2022-11-15T09:46:01;16.90;97.20
52295;DHT22;38243;53.212;6.574;2022-11-15T09:51:47;16.90;97.20
52295;DHT22;38243;53.212;6.574;2022-11-15T09:54:32;16.90;97.20
52295;DHT22;38243;53.212;6.574;2022-11-15T09:57:09;16.90;97.20
52295;DHT22;38243;53.212;6.574;2022-11-15T10:04:58;16.90;97.30
52295;DHT22;38243;53.212;6.574;2022-11-15T10:07:50;16.90;97.30
52295;DHT22;38243;53.212;6.574;2022-11-15T10:13:00;16.90;97.20
52295;DHT22;38243;53.212;6.574;2022-11-15T10:15:26;16.90;97.30
52295;DHT22;38243;53.212;6.574;2022-11-15T10:22:56;16.90;97.30
52295;DHT22;38243;53.212;6.574;2022-11-15T10:25:26;16.90;97.30
52295;DHT22;38243;53.212;6.574;2022-11-15T10:27:59;16.90;97.70
52295;DHT22;38243;53.212;6.574;2022-11-15T10:30:47;16.90;97.50
52295;DHT22;38243;53.212;6.574;2022-11-15T10:41:17;16.90;98.40
52295;DHT22;38243;53.212;6.574;2022-11-15T10:43:44;16.90;98.50
52295;DHT22;38243;53.212;6.574;2022-11-15T10:46:21;16.90;98.70
52295;DHT22;38243;53.212;6.574;2022-11-15T10:48:47;16.90;99.10
52295;DHT22;38243;53.212;6.574;2022-11-15T10:51:26;16.90;99.40
52295;DHT22;38243;53.212;6.574;2022-11-15T10:53:56;16.90;99.60
52295;DHT22;38243;53.212;6.574;2022-11-15T10:56:25;16.90;99.40
52295;DHT22;38243;53.212;6.574;2022-11-15T10:58:54;16.90;99.40
52295;DHT22;38243;53.212;6.574;2022-11-15T11:01:25;16.90;99.50
52295;DHT22;38243;53.212;6.574;2022-11-15T11:04:03;16.90;99.40
52295;DHT22;38243;53.212;6.574;2022-11-15T11:06:32;16.90;99.50
52295;DHT22;38243;53.212;6.574;2022-11-15T11:09:34;16.90;99.60
52295;DHT22;38243;53.212;6.574;2022-11-15T11:12:02;16.90;99.60
52295;DHT22;38243;53.212;6.574;2022-11-15T11:14:30;16.90;99.60
52295;DHT22;38243;53.212;6.574;2022-11-15T11:19:59;16.90;99.60
52295;DHT22;38243;53.212;6.574;2022-11-15T11:31:04;16.90;99.70
52295;DHT22;38243;53.212;6.574;2022-11-15T11:51:48;17.00;99.90
52295;DHT22;38243;53.212;6.574;2022-11-15T11:54:53;17.00;99.90
52295;DHT22;38243;53.212;6.574;2022-11-15T11:57:43;17.10;99.80
52295;DHT22;38243;53.212;6.574;2022-11-15T12:00:14;17.10;99.60
52295;DHT22;38243;53.212;6.574;2022-11-15T12:02:45;17.20;99.50
52295;DHT22;38243;53.212;6.574;2022-11-15T12:05:18;17.20;99.70
52295;DHT22;38243;53.212;6.574;2022-11-15T12:07:46;17.20;99.60
52295;DHT22;38243;53.212;6.574;2022-11-15T12:10:24;17.20;99.60
52295;DHT22;38243;53.212;6.574;2022-11-15T12:13:10;17.20;99.70
52295;DHT22;38243;53.212;6.574;2022-11-15T12:15:47;17.20;99.60
52295;DHT22;38243;53.212;6.574;2022-11-15T12:18:16;17.20;99.50
52295;DHT22;38243;53.212;6.574;2022-11-15T12:20:55;17.20;99.40
52295;DHT22;38243;53.212;6.574;2022-11-15T12:23:42;17.20;99.40
52295;DHT22;38243;53.212;6.574;2022-11-15T12:26:21;17.30;99.30
52295;DHT22;38243;53.212;6.574;2022-11-15T12:28:53;17.30;99.30
52295;DHT22;38243;53.212;6.574;2022-11-15T12:33:58;17.30;99.30
52295;DHT22;38243;53.212;6.574;2022-11-15T12:36:41;17.30;99.20
52295;DHT22;38243;53.212;6.574;2022-11-15T12:39:09;17.30;99.30
52295;DHT22;38243;53.212;6.574;2022-11-15T12:41:38;17.30;99.20
52295;DHT22;38243;53.212;6.574;2022-11-15T12:44:09;17.30;99.00
52295;DHT22;38243;53.212;6.574;2022-11-15T12:59:50;17.40;98.80
52295;DHT22;38243;53.212;6.574;2022-11-15T13:05:19;17.40;98.80
52295;DHT22;38243;53.212;6.574;2022-11-15T13:17:53;17.50;98.10
52295;DHT22;38243;53.212;6.574;2022-11-15T13:22:52;17.60;98.20
52295;DHT22;38243;53.212;6.574;2022-11-15T13:28:00;17.60;98.40
52295;DHT22;38243;53.212;6.574;2022-11-15T13:30:31;17.60;98.40
52295;DHT22;38243;53.212;6.574;2022-11-15T13:33:05;17.60;98.20
52295;DHT22;38243;53.212;6.574;2022-11-15T13:35:33;17.60;98.20
52295;DHT22;38243;53.212;6.574;2022-11-15T13:38:04;17.60;98.20
52295;DHT22;38243;53.212;6.574;2022-11-15T13:40:35;16.70;97.80
52295;DHT22;38243;53.212;6.574;2022-11-15T13:43:36;17.60;98.00
52295;DHT22;38243;53.212;6.574;2022-11-15T13:48:31;17.60;97.80
52295;DHT22;38243;53.212;6.574;2022-11-15T13:51:00;17.60;97.80
52295;DHT22;38243;53.212;6.574;2022-11-15T13:53:27;17.60;97.70
52295;DHT22;38243;53.212;6.574;2022-11-15T13:55:54;17.60;97.60
52295;DHT22;38243;53.212;6.574;2022-11-15T13:58:21;17.60;97.50
52295;DHT22;38243;53.212;6.574;2022-11-15T14:00:46;17.60;97.80
52295;DHT22;38243;53.212;6.574;2022-11-15T14:03:19;17.60;97.50
52295;DHT22;38243;53.212;6.574;2022-11-15T14:06:13;17.70;97.30
52295;DHT22;38243;53.212;6.574;2022-11-15T14:11:28;17.70;97.20
52295;DHT22;38243;53.212;6.574;2022-11-15T14:16:46;17.60;97.40
52295;DHT22;38243;53.212;6.574;2022-11-15T14:22:21;17.70;97.10
52295;DHT22;38243;53.212;6.574;2022-11-15T14:25:18;17.60;97.00
52295;DHT22;38243;53.212;6.574;2022-11-15T14:30:32;17.60;97.10
52295;DHT22;38243;53.212;6.574;2022-11-15T14:32:58;17.60;97.00
52295;DHT22;38243;53.212;6.574;2022-11-15T14:35:24;17.60;97.00
52295;DHT22;38243;53.212;6.574;2022-11-15T14:37:50;17.60;97.00
52295;DHT22;38243;53.212;6.574;2022-11-15T14:40:18;17.60;97.10
52295;DHT22;38243;53.212;6.574;2022-11-15T14:42:45;17.60;97.00
52295;DHT22;38243;53.212;6.574;2022-11-15T14:45:14;17.60;96.80
52295;DHT22;38243;53.212;6.574;2022-11-15T14:47:40;17.50;96.70
52295;DHT22;38243;53.212;6.574;2022-11-15T14:50:10;17.40;96.60
52295;DHT22;38243;53.212;6.574;2022-11-15T14:52:36;17.50;96.70
52295;DHT22;38243;53.212;6.574;2022-11-15T14:55:08;17.50;96.70
52295;DHT22;38243;53.212;6.574;2022-11-15T14:57:35;17.50;96.70
52295;DHT22;38243;53.212;6.574;2022-11-15T15:00:02;17.50;96.60
52295;DHT22;38243;53.212;6.574;2022-11-15T15:02:28;17.50;96.50
52295;DHT22;38243;53.212;6.574;2022-11-15T15:04:54;17.50;96.50
52295;DHT22;38243;53.212;6.574;2022-11-15T15:07:20;17.40;96.40
52295;DHT22;38243;53.212;6.574;2022-11-15T15:09:46;17.40;96.30
52295;DHT22;38243;53.212;6.574;2022-11-15T15:12:16;17.40;96.40
52295;DHT22;38243;53.212;6.574;2022-11-15T15:14:43;17.40;96.40
52295;DHT22;38243;53.212;6.574;2022-11-15T15:17:08;17.40;96.30
52295;DHT22;38243;53.212;6.574;2022-11-15T15:19:34;17.40;96.40
52295;DHT22;38243;53.212;6.574;2022-11-15T15:22:00;17.40;96.40
52295;DHT22;38243;53.212;6.574;2022-11-15T15:24:25;17.40;96.40
52295;DHT22;38243;53.212;6.574;2022-11-15T15:26:51;17.40;96.30
52295;DHT22;38243;53.212;6.574;2022-11-15T15:29:17;17.40;96.70
52295;DHT22;38243;53.212;6.574;2022-11-15T15:31:42;17.40;96.50
52295;DHT22;38243;53.212;6.574;2022-11-15T15:34:08;17.40;96.50
52295;DHT22;38243;53.212;6.574;2022-11-15T15:36:34;17.40;96.50
52295;DHT22;38243;53.212;6.574;2022-11-15T15:39:00;17.30;96.50
52295;DHT22;38243;53.212;6.574;2022-11-15T15:41:25;17.30;96.50
52295;DHT22;38243;53.212;6.574;2022-11-15T15:43:51;17.30;96.60
52295;DHT22;38243;53.212;6.574;2022-11-15T15:46:18;17.30;96.70
52295;DHT22;38243;53.212;6.574;2022-11-15T15:48:44;17.30;96.60
52295;DHT22;38243;53.212;6.574;2022-11-15T15:51:10;17.40;96.60
52295;DHT22;38243;53.212;6.574;2022-11-15T15:53:37;17.30;96.70
52295;DHT22;38243;53.212;6.574;2022-11-15T15:56:02;17.40;96.70
52295;DHT22;38243;53.212;6.574;2022-11-15T15:58:29;17.30;96.80
52295;DHT22;38243;53.212;6.574;2022-11-15T16:00:54;17.30;96.80
52295;DHT22;38243;53.212;6.574;2022-11-15T16:03:20;17.30;96.90
52295;DHT22;38243;53.212;6.574;2022-11-15T16:05:46;17.30;96.90
52295;DHT22;38243;53.212;6.574;2022-11-15T16:08:23;17.40;97.00
52295;DHT22;38243;53.212;6.574;2022-11-15T16:10:49;17.40;97.00
52295;DHT22;38243;53.212;6.574;2022-11-15T16:13:17;17.40;97.00
52295;DHT22;38243;53.212;6.574;2022-11-15T16:15:43;17.30;96.90
52295;DHT22;38243;53.212;6.574;2022-11-15T16:18:15;17.40;96.90
52295;DHT22;38243;53.212;6.574;2022-11-15T16:20:46;17.40;97.00
52295;DHT22;38243;53.212;6.574;2022-11-15T16:23:17;17.30;96.90
52295;DHT22;38243;53.212;6.574;2022-11-15T16:25:54;17.30;96.90
52295;DHT22;38243;53.212;6.574;2022-11-15T16:28:29;17.30;97.00
52295;DHT22;38243;53.212;6.574;2022-11-15T16:31:04;17.30;97.00
52295;DHT22;38243;53.212;6.574;2022-11-15T16:33:30;17.30;96.90
52295;DHT22;38243;53.212;6.574;2022-11-15T16:35:56;17.30;97.00
52295;DHT22;38243;53.212;6.574;2022-11-15T16:38:22;17.30;96.90
52295;DHT22;38243;53.212;6.574;2022-11-15T16:40:47;17.30;97.00
52295;DHT22;38243;53.212;6.574;2022-11-15T16:43:13;17.30;96.90
52295;DHT22;38243;53.212;6.574;2022-11-15T16:45:39;17.30;96.90
52295;DHT22;38243;53.212;6.574;2022-11-15T16:48:05;17.30;96.90
52295;DHT22;38243;53.212;6.574;2022-11-15T16:50:33;17.30;96.90
52295;DHT22;38243;53.212;6.574;2022-11-15T16:53:05;17.30;96.90
52295;DHT22;38243;53.212;6.574;2022-11-15T16:55:34;17.30;96.80
52295;DHT22;38243;53.212;6.574;2022-11-15T16:57:59;17.30;96.90
52295;DHT22;38243;53.212;6.574;2022-11-15T17:00:26;17.30;96.90
52295;DHT22;38243;53.212;6.574;2022-11-15T17:02:52;17.30;96.90
52295;DHT22;38243;53.212;6.574;2022-11-15T17:05:21;17.30;96.90
52295;DHT22;38243;53.212;6.574;2022-11-15T17:07:48;17.30;97.00
52295;DHT22;38243;53.212;6.574;2022-11-15T17:10:15;17.30;97.00
52295;DHT22;38243;53.212;6.574;2022-11-15T17:12:41;17.30;97.00
52295;DHT22;38243;53.212;6.574;2022-11-15T17:15:08;17.30;96.90
52295;DHT22;38243;53.212;6.574;2022-11-15T17:17:35;17.30;96.90
52295;DHT22;38243;53.212;6.574;2022-11-15T17:20:01;17.30;96.90
52295;DHT22;38243;53.212;6.574;2022-11-15T17:22:30;17.30;96.80
52295;DHT22;38243;53.212;6.574;2022-11-15T17:24:56;17.30;96.80
52295;DHT22;38243;53.212;6.574;2022-11-15T17:27:22;17.30;96.80
52295;DHT22;38243;53.212;6.574;2022-11-15T17:29:48;17.30;96.80
52295;DHT22;38243;53.212;6.574;2022-11-15T17:32:14;17.30;96.90
52295;DHT22;38243;53.212;6.574;2022-11-15T17:34:39;17.30;96.80
52295;DHT22;38243;53.212;6.574;2022-11-15T17:37:05;17.30;97.00
52295;DHT22;38243;53.212;6.574;2022-11-15T17:39:31;17.30;96.90
52295;DHT22;38243;53.212;6.574;2022-11-15T17:41:56;17.20;97.00
52295;DHT22;38243;53.212;6.574;2022-11-15T17:44:22;17.30;97.00
52295;DHT22;38243;53.212;6.574;2022-11-15T17:46:48;17.30;97.20
52295;DHT22;38243;53.212;6.574;2022-11-15T17:49:14;17.30;97.20